Back to top

Yellowstone, WY weather

Yellowstone (RAMOS), Yellowstone, WY: 6/04/2020 03:56
Visibilityunavailableclear sky
View 7-Day Forecast
Area Summary
Sky/Clouds
Weather [last 24 hours]None
Pressure30.09 in.Hg (1019 hPa)
Dew Point39 °F (3.9 °C)
Relative Humidity96.6 %
Last 24-Hour Precip.0.06 in. (1.524 mm)
Reading TimePrecipitation
6-hr ending 6/3@17:560.06 in. (1.524 mm)
Temperature39.9 °F (4.4 °C)red thermometer
Reading TimeMinimum to Maximum Temperature
6-hr ending 6/3@23:5642.1 °F to 48.9 °F (5.6 °C to 9.4 °C)
6-hr ending 6/3@17:5646 °F to 66.9 °F (7.8 °C to 19.4 °C)
6-hr ending 6/3@11:5641 °F to 64 °F (5 °C to 17.8 °C)
6-hr ending 6/3@05:5637.9 °F to 50 °F (3.3 °C to 10 °C)
24-hr ending 6/4@00:5637.9 °F to 66.9 °F (3.3 °C to 19.4 °C)
Wind0 MPH (0 KT) green arrow pointing at 0 degrees
Wind FromNorth (000 Degrees)
Rolling 24-hr Peak Wind33.4 MPH (29 KT) on 6/3@16:27
Rolling 24-hr Peak Wind FromWest (260 Degrees)
Twilight Begins05:00Sunshine Yesterday
Sunrise05:36N/A
Sunset21:05
Twilight Ends21:41
METARKP60 040956Z AUTO 00000KT 04/04 A3009 RMK AO1 SLP126 T00440039
Tags: